Terminal Aerodrome Forecast
Issued by NWS

Home | Current Version | Previous Version | Text Only | Print | Product List | Glossary On
Versions: 1 2 3 4 5 6 7 8 9 10 11 12 13 14 15 16 17 18 19 20
265
FTUS43 KAPX 280522
TAFPLN
TAF
KPLN 280522Z 2806/2906 29005KT P6SM OVC012
      TEMPO 2806/2809 OVC007
     FM281200 02004KT P6SM BKN025
     FM281400 02005KT P6SM SCT015
     FM281600 02005KT P6SM SCT250=

USA.gov is the U.S. government's official web portal to all federal, state and local government web resources and services.